Time;durP1;ratioP1;P1;durP2;ratioP2;P2;SDS_P1;SDS_P2;PMS_P1;PMS_P2;Temp;Humidity;BMP_temperature;BMP_pressure;BME280_temperature;BME280_humidity;BME280_pressure;Samples;Min_cycle;Max_cycle;Signal;HPM_P1;HPM_P2
2021/04/13 00:01:12;;;;;;;17.67;10.90;;;;;;;1.02;100.00;102569.91;5034699;28;20446;-70
2021/04/13 00:03:40;;;;;;;19.38;10.85;;;;;;;1.00;100.00;102566.38;5032165;28;20037;-70
2021/04/13 00:06:08;;;;;;;18.05;10.55;;;;;;;0.95;100.00;102566.38;5030716;28;20033;-70
2021/04/13 00:08:34;;;;;;;21.40;11.35;;;;;;;0.92;100.00;102570.78;5030870;28;20036;-70
2021/04/13 00:11:09;;;;;;;21.20;11.77;;;;;;;0.89;100.00;102568.09;5030435;28;20030;-70
2021/04/13 00:13:37;;;;;;;26.45;12.55;;;;;;;0.84;100.00;102557.50;5029054;28;20389;-70
2021/04/13 00:16:09;;;;;;;26.45;12.73;;;;;;;0.81;100.00;102561.00;5029845;28;20425;-69
2021/04/13 00:18:35;;;;;;;21.80;11.93;;;;;;;0.80;100.00;102555.72;5030540;28;20394;-70
2021/04/13 00:21:05;;;;;;;19.55;11.10;;;;;;;0.78;100.00;102555.72;5030921;28;20040;-70
2021/04/13 00:23:31;;;;;;;21.00;10.93;;;;;;;0.77;100.00;102564.53;5030763;28;20033;-70
2021/04/13 00:26:04;;;;;;;23.00;11.98;;;;;;;0.77;100.00;102559.22;5028660;28;20045;-70
2021/04/13 00:28:35;;;;;;;25.35;12.15;;;;;;;0.77;100.00;102569.81;5033794;28;20040;-70
2021/04/13 00:31:06;;;;;;;21.95;11.57;;;;;;;0.77;100.00;102559.22;5028842;28;20029;-70
2021/04/13 00:33:34;;;;;;;26.92;13.27;;;;;;;0.74;100.00;102559.19;5029787;28;20064;-70
2021/04/13 00:36:10;;;;;;;23.52;12.90;;;;;;;0.71;100.00;102559.19;5029630;28;20375;-69
2021/04/13 00:38:54;;;;;;;23.27;12.10;;;;;;;0.68;100.00;102559.16;5029298;28;20033;-69
2021/04/13 00:41:28;;;;;;;25.30;13.05;;;;;;;0.66;100.00;102560.06;5029250;28;20071;-69
2021/04/13 00:44:09;;;;;;;25.40;12.57;;;;;;;0.67;100.00;102556.53;5034693;28;20949;-69
2021/04/13 00:46:40;;;;;;;26.30;12.38;;;;;;;0.66;100.00;102560.94;5027313;28;20029;-70
2021/04/13 00:49:06;;;;;;;24.27;12.77;;;;;;;0.66;100.00;102560.94;5030818;28;20379;-70
2021/04/13 00:51:36;;;;;;;20.30;11.52;;;;;;;0.66;100.00;102560.94;5029592;28;20028;-70
2021/04/13 00:54:06;;;;;;;21.17;12.48;;;;;;;0.64;100.00;102561.78;5029267;28;20033;-70
2021/04/13 00:56:34;;;;;;;25.05;12.43;;;;;;;0.61;100.00;102560.03;5028631;28;20494;-70
2021/04/13 00:59:14;;;;;;;22.30;12.27;;;;;;;0.62;100.00;102564.41;5028313;28;20037;-70
2021/04/13 01:01:43;;;;;;;19.80;11.75;;;;;;;0.61;100.00;102557.38;5024426;28;20091;-70
2021/04/13 01:04:19;;;;;;;24.40;12.63;;;;;;;0.60;100.00;102560.00;5030099;28;20225;-69
2021/04/13 01:06:45;;;;;;;23.33;12.93;;;;;;;0.55;100.00;102560.00;5027228;28;20037;-69
2021/04/13 01:09:18;;;;;;;24.60;12.00;;;;;;;0.52;100.00;102561.72;5029899;28;20037;-70
2021/04/13 01:11:58;;;;;;;21.60;11.40;;;;;;;0.48;100.00;102573.16;5028518;28;20442;-69
2021/04/13 01:14:26;;;;;;;23.10;11.23;;;;;;;0.45;100.00;102559.91;5030807;28;20422;-70
2021/04/13 01:17:07;;;;;;;20.45;11.88;;;;;;;0.41;100.00;102566.94;5028548;28;20029;-69
2021/04/13 01:20:05;;;;;;;22.55;12.68;;;;;;;0.37;100.00;102558.09;5030215;28;20032;-70
2021/04/13 01:23:11;;;;;;;27.20;13.73;;;;;;;0.33;100.00;102564.25;5025755;28;20029;-70
2021/04/13 01:25:38;;;;;;;24.65;11.25;;;;;;;0.30;100.00;102563.34;5031136;28;20391;-69
2021/04/13 01:28:06;;;;;;;27.65;14.45;;;;;;;0.26;100.00;102559.78;5030961;28;20045;-70
2021/04/13 01:30:38;;;;;;;26.35;13.38;;;;;;;0.25;100.00;102570.31;5027397;28;20439;-70
2021/04/13 01:33:42;;;;;;;23.52;13.18;;;;;;;0.21;100.00;102568.53;5032380;28;20379;-69
2021/04/13 01:36:29;;;;;;;23.15;13.05;;;;;;;0.19;100.00;102567.63;5027419;28;20437;-69
2021/04/13 01:39:18;;;;;;;25.23;13.25;;;;;;;0.16;100.00;102570.28;5026010;28;20033;-70
2021/04/13 01:44:21;;;;;;;29.88;14.50;;;;;;;0.13;100.00;102572.88;5035717;28;20029;-70
2021/04/13 01:46:46;;;;;;;26.38;13.35;;;;;;;0.13;100.00;102580.78;5026953;28;20775;-70
2021/04/13 01:49:12;;;;;;;29.08;14.45;;;;;;;0.09;100.00;102576.38;5034266;28;20041;-70
2021/04/13 01:51:38;;;;;;;30.02;14.70;;;;;;;0.08;100.00;102570.19;5027887;28;20029;-70
2021/04/13 01:54:10;;;;;;;29.67;15.30;;;;;;;0.05;100.00;102569.31;5038203;28;20042;-69
2021/04/13 01:57:15;;;;;;;32.90;15.27;;;;;;;0.03;100.00;102571.91;5030094;28;20657;-69
2021/04/13 01:59:53;;;;;;;32.53;16.05;;;;;;;0.00;100.00;102572.75;4999039;28;20042;-70
2021/04/13 02:02:27;;;;;;;33.08;16.73;;;;;;;0.00;100.00;102571.91;5025945;28;20040;-70
2021/04/13 02:04:56;;;;;;;37.13;16.35;;;;;;;-0.01;100.00;102573.66;5028156;28;20042;-70
2021/04/13 02:08:02;;;;;;;30.60;15.77;;;;;;;0.05;100.00;102571.94;5020943;28;20028;-70
2021/04/13 02:10:41;;;;;;;38.78;17.30;;;;;;;-0.01;100.00;102576.31;5031615;28;20465;-70
2021/04/13 02:13:26;;;;;;;35.05;17.60;;;;;;;-0.02;100.00;102576.28;5028956;28;20532;-70
2021/04/13 02:15:56;;;;;;;36.25;17.67;;;;;;;-0.02;100.00;102582.44;5029861;28;20032;-70
2021/04/13 02:18:29;;;;;;;33.90;17.13;;;;;;;-0.04;100.00;102581.53;5033846;28;20432;-70
2021/04/13 02:20:55;;;;;;;39.22;19.77;;;;;;;-0.05;100.00;102582.41;5033107;28;20037;-70
2021/04/13 02:23:27;;;;;;;35.80;17.80;;;;;;;-0.03;100.00;102585.06;5029585;28;20029;-70
2021/04/13 02:25:54;;;;;;;34.03;18.05;;;;;;;-0.03;100.00;102585.06;5028648;28;20053;-70
2021/04/13 02:28:20;;;;;;;36.63;19.23;;;;;;;-0.02;100.00;102584.19;5029887;28;20067;-70
2021/04/13 02:30:48;;;;;;;38.90;19.52;;;;;;;-0.02;100.00;102595.66;5027200;28;20041;-70
2021/04/13 02:33:23;;;;;;;37.78;19.52;;;;;;;0.03;100.00;102597.44;5032279;28;20043;-69
2021/04/13 02:35:49;;;;;;;34.13;17.13;;;;;;;0.00;100.00;102588.59;5023700;28;20037;-70
2021/04/13 02:38:19;;;;;;;40.70;18.70;;;;;;;0.03;100.00;102586.88;5024220;28;20044;-70
2021/04/13 02:41:26;;;;;;;39.47;18.15;;;;;;;0.02;100.00;102586.00;5027709;28;20084;-70
2021/04/13 02:43:54;;;;;;;36.13;17.10;;;;;;;0.00;100.00;102585.97;5027179;28;20505;-70
2021/04/13 02:46:27;;;;;;;43.08;18.17;;;;;;;0.06;100.00;102587.81;5030290;28;20088;-70
2021/04/13 02:49:07;;;;;;;38.40;18.02;;;;;;;0.04;100.00;102589.53;5030360;28;20077;-69
2021/04/13 02:51:36;;;;;;;39.00;18.38;;;;;;;0.03;100.00;102594.78;5031560;28;20389;-70
2021/04/13 02:54:02;;;;;;;48.42;20.10;;;;;;;0.03;100.00;102592.16;5032444;28;20091;-70
2021/04/13 02:56:33;;;;;;;63.25;26.50;;;;;;;0.04;100.00;102588.66;5030675;28;20566;-70
2021/04/13 02:59:06;;;;;;;73.95;28.55;;;;;;;-0.01;100.00;102592.16;5034692;28;20103;-70
2021/04/13 03:01:34;;;;;;;59.42;22.55;;;;;;;-0.03;100.00;102595.63;5028312;28;20034;-70
2021/04/13 03:04:05;;;;;;;57.25;23.60;;;;;;;-0.04;100.00;102602.66;5033404;28;20041;-70
2021/04/13 03:06:37;;;;;;;65.75;27.77;;;;;;;-0.06;100.00;102599.13;5031269;28;20067;-69
2021/04/13 03:09:05;;;;;;;61.08;25.30;;;;;;;-0.07;100.00;102604.41;5032858;28;20117;-70
2021/04/13 03:11:33;;;;;;;54.80;23.15;;;;;;;-0.10;100.00;102602.59;5030494;28;20470;-70
2021/04/13 03:13:59;;;;;;;89.20;30.35;;;;;;;-0.12;100.00;102604.34;5031341;28;20045;-70
2021/04/13 03:16:43;;;;;;;142.65;43.33;;;;;;;-0.10;100.00;102602.59;5031224;28;20033;-70
2021/04/13 03:19:14;;;;;;;118.28;38.90;;;;;;;-0.14;100.00;102597.28;5035805;28;20037;-70
2021/04/13 03:21:45;;;;;;;135.03;38.20;;;;;;;-0.16;100.00;102607.81;5029349;28;20033;-70
2021/04/13 03:24:15;;;;;;;162.75;50.17;;;;;;;-0.16;100.00;102602.53;5031143;28;20029;-70
2021/04/13 03:26:48;;;;;;;159.00;47.42;;;;;;;-0.17;100.00;102606.06;5030253;28;20531;-70
2021/04/13 03:29:20;;;;;;;141.55;41.75;;;;;;;-0.12;100.00;102614.88;5031012;28;20060;-70
2021/04/13 03:31:47;;;;;;;207.05;57.63;;;;;;;-0.16;100.00;102613.09;5029090;28;20064;-70
2021/04/13 03:34:15;;;;;;;218.43;62.63;;;;;;;-0.16;100.00;102618.38;5030598;28;20029;-70
2021/04/13 03:36:41;;;;;;;163.18;51.95;;;;;;;-0.16;100.00;102612.22;5029645;28;20471;-70
2021/04/13 03:39:13;;;;;;;174.55;55.85;;;;;;;-0.16;100.00;102618.38;5029026;28;20119;-70
2021/04/13 03:41:44;;;;;;;98.55;36.90;;;;;;;-0.15;100.00;102614.00;5028061;28;20037;-70
2021/04/13 03:44:10;;;;;;;73.45;28.48;;;;;;;-0.11;100.00;102610.50;5036852;28;20041;-70
2021/04/13 03:46:38;;;;;;;61.60;27.23;;;;;;;-0.17;100.00;102616.59;5030714;28;20048;-70
2021/04/13 03:49:08;;;;;;;51.70;25.45;;;;;;;-0.18;100.00;102611.31;5032664;28;20109;-70
2021/04/13 03:51:41;;;;;;;41.70;21.35;;;;;;;-0.18;100.00;102609.56;5029671;28;20036;-70
2021/04/13 03:54:23;;;;;;;37.22;18.65;;;;;;;-0.19;100.00;102615.72;5045555;28;20118;-69
2021/04/13 03:56:49;;;;;;;41.33;18.47;;;;;;;-0.22;100.00;102605.13;5030473;28;20381;-70
2021/04/13 03:59:22;;;;;;;36.72;17.42;;;;;;;-0.22;100.00;102613.03;5032705;28;20039;-70
2021/04/13 04:01:49;;;;;;;38.00;17.95;;;;;;;-0.23;100.00;102616.53;5028856;28;20061;-70
2021/04/13 04:04:33;;;;;;;33.72;16.35;;;;;;;-0.23;100.00;102615.66;5026185;28;20039;-70
2021/04/13 04:07:22;;;;;;;38.22;16.90;;;;;;;-0.24;100.00;102608.59;5029185;28;20041;-70
2021/04/13 04:09:47;;;;;;;34.60;17.83;;;;;;;-0.25;100.00;102607.75;5031790;28;20031;-69
2021/04/13 04:12:22;;;;;;;39.10;19.25;;;;;;;-0.26;100.00;102608.63;5029929;28;20426;-70
2021/04/13 04:15:07;;;;;;;42.22;19.83;;;;;;;-0.21;100.00;102604.25;5029984;28;20171;-70
2021/04/13 04:17:36;;;;;;;44.53;17.60;;;;;;;-0.20;100.00;102606.03;5029763;28;20040;-70
2021/04/13 04:20:06;;;;;;;39.60;18.58;;;;;;;-0.20;100.00;102610.44;5033698;28;20042;-70
2021/04/13 04:22:35;;;;;;;40.67;18.33;;;;;;;-0.22;100.00;102607.75;5029367;28;20465;-70
2021/04/13 04:25:18;;;;;;;33.20;16.88;;;;;;;-0.20;100.00;102611.31;5029087;28;20095;-70
2021/04/13 04:27:46;;;;;;;30.65;15.48;;;;;;;-0.24;100.00;102612.13;5029178;28;20038;-70
2021/04/13 04:30:24;;;;;;;34.70;17.58;;;;;;;-0.26;100.00;102620.91;5028484;28;20029;-70
2021/04/13 04:32:51;;;;;;;34.42;16.63;;;;;;;-0.28;100.00;102618.25;5029910;28;20026;-70
2021/04/13 04:35:49;;;;;;;37.83;16.35;;;;;;;-0.28;100.00;102620.91;5028872;28;20166;-70
2021/04/13 04:38:27;;;;;;;40.75;16.05;;;;;;;-0.27;100.00;102624.41;5020996;28;20645;-69
2021/04/13 04:40:57;;;;;;;35.38;16.45;;;;;;;-0.29;100.00;102624.41;5022118;28;20456;-70
2021/04/13 04:43:45;;;;;;;35.33;16.98;;;;;;;-0.22;100.00;102628.88;5027243;28;20541;-70
2021/04/13 04:46:29;;;;;;;32.55;16.05;;;;;;;-0.26;100.00;102632.38;5028583;28;20486;-69
2021/04/13 04:49:14;;;;;;;36.25;16.85;;;;;;;-0.22;100.00;102638.53;5030116;28;20386;-70
2021/04/13 04:51:41;;;;;;;33.15;15.85;;;;;;;-0.21;100.00;102641.22;5030210;28;20067;-70
2021/04/13 04:54:08;;;;;;;35.28;16.73;;;;;;;-0.18;100.00;102643.84;5029089;28;20447;-70
2021/04/13 04:56:34;;;;;;;31.98;15.60;;;;;;;-0.22;100.00;102655.25;5028130;28;20036;-71
2021/04/13 04:59:00;;;;;;;34.60;17.67;;;;;;;-0.22;100.00;102644.72;5028970;28;20510;-70
2021/04/13 05:01:26;;;;;;;42.17;18.45;;;;;;;-0.14;100.00;102656.25;5026178;28;20394;-70
2021/04/13 05:03:52;;;;;;;38.13;18.70;;;;;;;-0.10;100.00;102650.13;5027581;28;20040;-69
2021/04/13 05:06:19;;;;;;;39.72;17.88;;;;;;;-0.02;100.00;102653.72;5027811;28;20025;-70
2021/04/13 05:08:44;;;;;;;37.10;15.70;;;;;;;0.11;100.00;102664.41;5029537;28;20041;-69
2021/04/13 05:11:10;;;;;;;35.55;16.77;;;;;;;0.15;100.00;102655.63;5024756;28;20037;-69
2021/04/13 05:13:35;;;;;;;37.08;17.65;;;;;;;0.24;100.00;102663.66;5059767;28;20036;-70
2021/04/13 05:16:01;;;;;;;43.40;16.15;;;;;;;0.28;100.00;102670.72;5026977;28;20116;-70
2021/04/13 05:18:27;;;;;;;36.88;15.80;;;;;;;0.38;100.00;102660.25;5027815;28;20033;-70
2021/04/13 05:20:53;;;;;;;38.70;17.25;;;;;;;0.28;100.00;102670.72;5027928;28;20025;-70
2021/04/13 05:23:19;;;;;;;37.95;16.60;;;;;;;0.30;100.00;102676.91;5028767;28;20478;-70
2021/04/13 05:25:44;;;;;;;37.08;16.63;;;;;;;0.38;100.00;102670.81;5029058;28;20037;-70
2021/04/13 05:28:10;;;;;;;40.03;17.10;;;;;;;0.45;100.00;102676.16;5026892;28;20175;-69
2021/04/13 05:30:36;;;;;;;40.17;16.65;;;;;;;0.46;100.00;102684.09;5028427;28;20029;-70
2021/04/13 05:33:02;;;;;;;40.15;16.27;;;;;;;0.55;100.00;102685.94;5030082;28;20044;-70
2021/04/13 05:35:28;;;;;;;33.60;15.40;;;;;;;0.55;100.00;102673.63;5024974;28;20033;-70
2021/04/13 05:37:56;;;;;;;29.83;15.13;;;;;;;0.53;100.00;102693.84;5027328;28;20398;-70
2021/04/13 05:40:24;;;;;;;35.75;16.33;;;;;;;0.46;100.00;102699.06;5032986;28;20036;-70
2021/04/13 05:42:51;;;;;;;36.92;16.50;;;;;;;0.56;100.00;102696.50;5040935;28;20044;-70
2021/04/13 05:45:18;;;;;;;34.97;16.45;;;;;;;0.64;100.00;102693.94;5033271;28;20029;-70
2021/04/13 05:47:44;;;;;;;37.22;15.77;;;;;;;0.63;100.00;102695.69;5028679;28;20042;-70
2021/04/13 05:50:18;;;;;;;38.22;16.50;;;;;;;0.65;100.00;102699.22;5028267;28;20040;-70
2021/04/13 05:52:43;;;;;;;37.70;15.65;;;;;;;0.78;100.00;102700.22;5029940;28;20017;-70
2021/04/13 05:55:09;;;;;;;34.88;16.65;;;;;;;0.94;100.00;102709.13;5028810;28;20395;-70
2021/04/13 05:57:35;;;;;;;34.78;16.15;;;;;;;0.96;100.00;102708.28;5027953;28;20500;-70
2021/04/13 06:00:01;;;;;;;35.42;14.50;;;;;;;1.19;100.00;102713.69;5027762;28;20045;-70
2021/04/13 06:02:31;;;;;;;33.00;15.38;;;;;;;1.30;100.00;102714.66;5027111;28;20253;-70
2021/04/13 06:04:59;;;;;;;33.33;15.32;;;;;;;1.38;100.00;102720.88;5025164;28;20065;-70
2021/04/13 06:07:24;;;;;;;36.83;15.75;;;;;;;1.51;100.00;102728.00;5028770;28;20029;-70
2021/04/13 06:09:49;;;;;;;33.95;15.50;;;;;;;1.58;100.00;102727.16;5026910;28;20815;-70
2021/04/13 06:12:15;;;;;;;30.73;14.88;;;;;;;1.65;100.00;102732.47;5028821;28;20017;-70
2021/04/13 06:14:42;;;;;;;31.45;14.80;;;;;;;1.71;100.00;102729.88;5028370;28;20222;-70
2021/04/13 06:17:10;;;;;;;42.08;15.45;;;;;;;1.83;100.00;102732.56;5031240;28;20037;-70
2021/04/13 06:19:36;;;;;;;35.45;15.18;;;;;;;1.90;100.00;102737.00;5030028;28;20039;-70
2021/04/13 06:22:01;;;;;;;26.67;14.10;;;;;;;1.81;100.00;102742.25;5032471;28;20444;-70
2021/04/13 06:24:27;;;;;;;35.85;15.27;;;;;;;1.82;100.00;102742.25;5031902;28;20026;-70
2021/04/13 06:26:52;;;;;;;31.67;14.93;;;;;;;1.87;100.00;102748.44;5031585;28;20044;-70
2021/04/13 06:29:18;;;;;;;25.40;13.63;;;;;;;1.88;100.00;102744.94;5031422;28;20104;-70
2021/04/13 06:31:43;;;;;;;28.75;13.98;;;;;;;1.92;100.00;102751.09;5031641;28;20033;-69
2021/04/13 06:34:08;;;;;;;35.58;15.05;;;;;;;1.97;100.00;102746.75;5076547;28;20060;-69
2021/04/13 06:36:37;;;;;;;32.78;13.75;;;;;;;2.12;100.00;102752.06;5030829;28;20025;-70
2021/04/13 06:39:04;;;;;;;29.60;14.60;;;;;;;2.35;100.00;102755.66;5031459;28;20037;-70
2021/04/13 06:42:16;;;;;;;27.55;13.20;;;;;;;2.49;100.00;102762.75;5028585;28;20029;-70
2021/04/13 06:44:54;;;;;;;33.58;13.02;;;;;;;2.66;100.00;102761.88;5029884;28;20123;-70
2021/04/13 06:47:44;;;;;;;31.20;13.52;;;;;;;2.85;100.00;102762.78;5031379;28;20030;-70
2021/04/13 06:50:33;;;;;;;31.48;13.80;;;;;;;3.20;100.00;102766.31;5038210;28;20106;-70
2021/04/13 06:53:26;;;;;;;30.65;14.00;;;;;;;3.49;100.00;102768.03;5030275;28;20029;-71
2021/04/13 06:56:08;;;;;;;26.23;12.90;;;;;;;3.89;100.00;102763.47;5026404;28;20041;-71
2021/04/13 06:59:11;;;;;;;23.70;11.43;;;;;;;4.57;98.00;102771.03;5031081;28;20120;-71
2021/04/13 07:01:45;;;;;;;32.10;11.30;;;;;;;5.45;94.01;102772.06;5036635;28;20032;-70
2021/04/13 07:04:20;;;;;;;23.63;10.07;;;;;;;6.31;88.58;102770.16;5036252;28;20425;-70
2021/04/13 07:06:51;;;;;;;37.03;16.35;;;;;;;7.11;84.62;102776.91;5030565;28;20037;-71
2021/04/13 07:09:26;;;;;;;20.80;9.55;;;;;;;7.61;79.51;102780.44;5029618;28;20029;-71
2021/04/13 07:11:58;;;;;;;21.25;8.80;;;;;;;8.16;76.99;102788.22;5030658;28;20104;-71
2021/04/13 07:14:43;;;;;;;24.70;7.80;;;;;;;8.61;73.45;102785.47;5033933;28;20033;-70
2021/04/13 07:17:27;;;;;;;17.77;8.68;;;;;;;9.15;71.50;102785.94;5041465;28;20063;-71
2021/04/13 07:20:16;;;;;;;14.93;6.95;;;;;;;9.33;69.70;102788.13;5025199;28;20112;-71
2021/04/13 07:22:54;;;;;;;15.82;7.03;;;;;;;9.81;67.35;102790.44;5027504;28;20087;-71
2021/04/13 07:25:27;;;;;;;15.70;6.80;;;;;;;10.19;66.64;102789.31;5028814;28;20083;-70
2021/04/13 07:28:04;;;;;;;17.98;6.82;;;;;;;10.37;64.19;102792.34;5029822;28;20505;-71
2021/04/13 07:30:34;;;;;;;15.20;6.28;;;;;;;10.61;63.44;102790.72;5028633;28;20544;-71
2021/04/13 07:33:02;;;;;;;15.30;5.00;;;;;;;10.64;63.20;102795.97;5029724;28;20030;-71
2021/04/13 07:35:34;;;;;;;15.27;5.95;;;;;;;10.67;62.12;102785.16;5028521;28;20025;-70
2021/04/13 07:38:04;;;;;;;13.55;6.00;;;;;;;10.80;62.50;102791.88;5030523;28;20049;-70
2021/04/13 07:40:33;;;;;;;18.70;7.05;;;;;;;10.97;61.75;102794.03;5027147;28;20432;-71
2021/04/13 07:43:20;;;;;;;22.98;8.00;;;;;;;11.20;62.85;102795.94;5030766;28;20513;-71
2021/04/13 07:46:02;;;;;;;16.98;5.97;;;;;;;11.64;59.38;102802.47;5030080;28;20025;-70
2021/04/13 07:48:44;;;;;;;10.82;3.40;;;;;;;11.49;57.53;102803.88;5027510;28;20037;-70
2021/04/13 07:51:31;;;;;;;16.77;3.97;;;;;;;11.51;59.98;102798.44;5035038;28;20037;-71
2021/04/13 07:54:34;;;;;;;13.07;3.95;;;;;;;11.48;58.13;102803.94;5028883;28;20040;-70
2021/04/13 07:57:08;;;;;;;12.50;4.07;;;;;;;11.80;56.03;102808.19;5030306;28;20037;-70
2021/04/13 07:59:33;;;;;;;11.57;3.60;;;;;;;11.69;55.20;102805.84;5029362;28;20099;-71
2021/04/13 08:01:58;;;;;;;14.70;3.70;;;;;;;12.19;55.76;102803.16;5031596;28;20482;-70
2021/04/13 08:04:28;;;;;;;8.77;3.25;;;;;;;12.45;55.10;102811.13;5035039;28;20033;-71
2021/04/13 08:07:15;;;;;;;6.07;2.88;;;;;;;12.54;52.60;102811.63;5027448;28;20037;-71
2021/04/13 08:10:00;;;;;;;11.77;2.72;;;;;;;12.54;52.10;102819.72;5034406;28;20029;-71
2021/04/13 08:12:32;;;;;;;14.82;3.80;;;;;;;12.39;53.31;102805.97;5029523;28;20144;-71
2021/04/13 08:15:13;;;;;;;13.02;4.13;;;;;;;12.35;53.61;102821.34;5028749;28;20055;-71
2021/04/13 08:18:18;;;;;;;10.65;2.72;;;;;;;12.64;54.90;102808.59;5030844;28;20084;-71
2021/04/13 08:20:45;;;;;;;10.43;3.95;;;;;;;12.93;53.84;102806.47;5021781;28;20037;-71
2021/04/13 08:23:21;;;;;;;7.72;2.30;;;;;;;12.90;52.43;102803.88;5029795;28;20445;-71
2021/04/13 08:25:50;;;;;;;11.50;2.40;;;;;;;12.94;53.95;102808.22;5035308;28;20040;-71
2021/04/13 08:28:36;;;;;;;9.00;2.55;;;;;;;12.81;52.63;102816.88;5032536;28;20034;-71
2021/04/13 08:34:44;;;;;;;16.52;3.42;;;;;;;13.28;53.43;102806.84;5031808;28;21295;-72
2021/04/13 08:37:31;;;;;;;14.00;2.90;;;;;;;13.39;50.75;102815.38;5040325;28;20517;-71
2021/04/13 08:40:23;;;;;;;9.55;2.40;;;;;;;13.29;49.91;102808.59;5039249;28;20512;-71
2021/04/13 08:42:52;;;;;;;9.75;1.67;;;;;;;13.27;49.56;102810.47;5026390;28;20045;-72
2021/04/13 08:45:32;;;;;;;13.32;3.20;;;;;;;13.40;48.28;102809.00;5032371;28;20490;-71
2021/04/13 08:48:36;;;;;;;8.05;2.47;;;;;;;13.75;47.11;102808.38;5033401;28;20076;-71
2021/04/13 08:51:13;;;;;;;16.20;3.78;;;;;;;13.02;46.24;102816.00;5022057;28;20103;-71
2021/04/13 08:54:04;;;;;;;13.57;2.22;;;;;;;11.67;51.71;102808.59;5028678;28;20082;-71
2021/04/13 08:56:31;;;;;;;16.67;3.05;;;;;;;10.91;54.71;102815.72;5032935;28;20088;-71
2021/04/13 08:58:59;;;;;;;11.43;2.63;;;;;;;10.63;56.26;102814.81;5031081;28;20037;-71
2021/04/13 09:01:39;;;;;;;9.88;2.58;;;;;;;10.37;59.24;102808.44;5030388;28;20076;-72
2021/04/13 09:04:11;;;;;;;11.07;2.17;;;;;;;9.95;59.32;102809.66;5037241;28;20120;-71
2021/04/13 09:06:55;;;;;;;10.50;2.00;;;;;;;9.72;60.55;102811.19;5032023;28;20040;-72
2021/04/13 09:09:26;;;;;;;10.07;2.30;;;;;;;10.04;59.12;102812.09;5029635;28;20064;-71
2021/04/13 09:12:12;;;;;;;8.52;2.63;;;;;;;11.06;59.66;102807.13;5030310;28;20233;-71
2021/04/13 09:15:06;;;;;;;13.10;1.63;;;;;;;10.87;57.22;102819.41;5028042;28;20512;-71
2021/04/13 09:17:37;;;;;;;13.27;2.03;;;;;;;10.46;57.22;102808.19;5027477;28;20060;-71
2021/04/13 09:20:13;;;;;;;9.30;2.20;;;;;;;10.44;55.74;102815.38;5027995;28;20121;-72
2021/04/13 09:22:49;;;;;;;11.00;1.65;;;;;;;11.21;54.28;102812.03;5026935;28;20251;-71
2021/04/13 09:25:44;;;;;;;7.22;1.95;;;;;;;11.36;55.01;102803.41;5028608;28;20031;-71
2021/04/13 09:28:22;;;;;;;7.43;1.65;;;;;;;11.28;55.90;102808.19;5033546;28;20054;-71
2021/04/13 09:30:59;;;;;;;4.35;1.40;;;;;;;10.61;56.43;102811.31;5027017;28;20040;-71
2021/04/13 09:33:36;;;;;;;8.95;2.20;;;;;;;10.28;55.70;102816.78;5032183;28;20436;-72
2021/04/13 09:36:19;;;;;;;9.25;1.58;;;;;;;10.21;57.23;102809.84;5061328;28;20402;-71
2021/04/13 09:39:15;;;;;;;8.57;1.27;;;;;;;10.50;57.25;102803.56;5024931;28;20524;-72
2021/04/13 09:42:04;;;;;;;5.05;1.50;;;;;;;11.27;54.88;102803.75;5027460;28;20049;-71
2021/04/13 09:44:40;;;;;;;7.22;1.83;;;;;;;11.74;52.37;102801.22;5027807;28;20037;-71
2021/04/13 09:47:25;;;;;;;13.60;2.65;;;;;;;10.73;54.23;102805.56;5028086;28;20084;-72
2021/04/13 09:50:21;;;;;;;10.75;1.58;;;;;;;10.39;56.91;102801.22;5027096;28;20041;-72
2021/04/13 09:53:21;;;;;;;16.52;1.70;;;;;;;10.06;57.01;102807.59;5024949;28;20159;-72
2021/04/13 09:55:55;;;;;;;8.55;1.60;;;;;;;10.82;57.47;102799.88;5025268;28;20033;-72
2021/04/13 09:58:48;;;;;;;9.02;1.85;;;;;;;11.30;54.25;102810.81;5025939;28;20049;-72
2021/04/13 10:01:53;;;;;;;7.55;1.50;;;;;;;11.78;54.60;102802.88;5007110;28;20058;-71
2021/04/13 10:04:31;;;;;;;7.97;1.40;;;;;;;11.90;50.23;102807.81;5026198;28;20037;-72
2021/04/13 10:07:06;;;;;;;5.28;1.33;;;;;;;12.04;52.03;102807.28;5028929;28;20084;-71
2021/04/13 10:09:39;;;;;;;11.07;1.38;;;;;;;12.02;53.06;102803.78;5028272;28;20037;-72
2021/04/13 10:12:30;;;;;;;7.40;1.50;;;;;;;12.36;54.50;102798.00;5027609;28;20542;-72
2021/04/13 10:15:18;;;;;;;9.50;1.63;;;;;;;12.54;49.24;102791.88;5026159;28;20379;-72
2021/04/13 10:18:02;;;;;;;10.70;2.42;;;;;;;12.03;52.26;102790.28;5026895;28;20057;-72
2021/04/13 10:20:36;;;;;;;12.18;2.60;;;;;;;11.45;51.68;102791.47;5026817;28;20465;-72
2021/04/13 10:23:10;;;;;;;12.85;2.03;;;;;;;11.62;48.36;102785.47;5027515;28;20042;-72
2021/04/13 10:25:48;;;;;;;7.05;2.22;;;;;;;11.51;47.17;102785.88;5027295;28;20549;-72
2021/04/13 10:28:19;;;;;;;8.68;1.58;;;;;;;11.87;46.48;102782.81;5026965;28;20039;-72
2021/04/13 10:31:00;;;;;;;6.50;1.20;;;;;;;11.82;47.29;102791.06;5025948;28;20525;-72
2021/04/13 10:33:31;;;;;;;10.77;1.50;;;;;;;11.76;48.58;102780.53;5021063;28;20041;-72
2021/04/13 10:36:21;;;;;;;11.93;2.70;;;;;;;11.69;51.83;102774.47;5024488;28;20048;-72
2021/04/13 10:39:03;;;;;;;4.38;1.40;;;;;;;11.47;52.83;102784.25;5026795;28;20033;-72
2021/04/13 10:41:56;;;;;;;17.50;1.80;;;;;;;11.26;53.80;102772.41;5025413;28;20029;-72
2021/04/13 10:44:40;;;;;;;11.60;1.80;;;;;;;11.69;52.38;102768.19;5026168;28;20500;-72
2021/04/13 10:47:25;;;;;;;9.10;1.10;;;;;;;12.01;48.39;102767.03;5024663;28;20120;-72
2021/04/13 10:50:29;;;;;;;4.03;1.30;;;;;;;12.24;48.79;102767.03;5019425;28;20447;-72
2021/04/13 10:53:21;;;;;;;6.25;1.25;;;;;;;12.35;47.60;102763.91;5023833;28;20076;-72
2021/04/13 10:56:28;;;;;;;7.03;1.23;;;;;;;12.30;43.91;102755.13;5025412;28;20033;-72
2021/04/13 10:59:31;;;;;;;7.18;1.45;;;;;;;12.62;45.77;102761.94;5026622;28;20034;-72
2021/04/13 11:02:44;;;;;;;8.88;1.23;;;;;;;12.25;41.16;102767.91;5029340;28;20040;-72
2021/04/13 11:05:49;;;;;;;6.43;0.98;;;;;;;11.84;43.31;102761.41;5028550;28;20055;-72
2021/04/13 11:08:35;;;;;;;6.43;0.95;;;;;;;11.59;45.72;102756.03;5030401;28;20041;-72
2021/04/13 11:11:19;;;;;;;8.95;0.90;;;;;;;11.32;46.58;102752.50;5030113;28;20037;-72
2021/04/13 11:14:22;;;;;;;7.88;1.42;;;;;;;10.94;48.68;102745.75;5037735;28;20029;-72
2021/04/13 11:17:18;;;;;;;7.10;1.20;;;;;;;10.75;49.11;102748.16;5029072;28;20129;-72
2021/04/13 11:20:24;;;;;;;4.40;1.30;;;;;;;10.80;49.57;102745.34;5029796;28;20030;-72
2021/04/13 11:23:41;;;;;;;11.45;1.35;;;;;;;11.04;47.68;102747.22;5028956;28;20413;-72
2021/04/13 11:26:12;;;;;;;10.52;1.58;;;;;;;11.33;42.79;102748.88;5008157;28;20041;-72
2021/04/13 11:29:04;;;;;;;4.40;1.20;;;;;;;11.83;40.66;102743.50;5020558;28;20092;-71
2021/04/13 11:31:51;;;;;;;4.28;1.27;;;;;;;11.87;43.01;102737.06;5035168;28;20025;-72
2021/04/13 11:34:38;;;;;;;5.80;0.93;;;;;;;12.03;39.33;102736.44;5034741;28;20041;-72
2021/04/13 11:37:09;;;;;;;3.30;0.93;;;;;;;12.23;43.94;102732.06;5031354;28;20435;-72
2021/04/13 11:39:54;;;;;;;9.27;1.33;;;;;;;12.30;42.02;102733.59;5028541;28;20029;-71
2021/04/13 11:42:27;;;;;;;5.82;1.60;;;;;;;12.24;44.42;102731.16;5023828;28;20033;-72
2021/04/13 11:45:12;;;;;;;;;;;;;;;11.98;46.47;102727.66;5027869;28;20129;-72
2021/04/13 11:48:10;;;;;;;4.43;1.00;;;;;;;12.16;41.38;102732.31;5029888;28;19923;-72
2021/04/13 11:51:20;;;;;;;6.90;0.93;;;;;;;12.21;41.18;102724.09;5025850;28;20402;-72
2021/04/13 11:53:49;;;;;;;3.15;0.80;;;;;;;12.34;41.59;102724.47;5015629;28;20041;-72
2021/04/13 11:56:21;;;;;;;7.50;0.88;;;;;;;12.41;38.57;102729.53;5021720;28;20501;-72
2021/04/13 11:59:12;;;;;;;3.20;1.35;;;;;;;12.52;42.84;102721.03;5027485;28;20490;-72
2021/04/13 12:01:42;;;;;;;7.20;2.15;;;;;;;12.16;38.82;102732.31;5042490;28;20060;-72